createdAt,value
2023-05-22T00:00:38.916Z,82.42
2023-05-22T00:01:38.671Z,82.52
2023-05-22T00:02:38.944Z,82.62
2023-05-22T00:03:38.661Z,82.31
2023-05-22T00:04:38.693Z,82.42
2023-05-22T00:05:38.652Z,82.21
2023-05-22T00:06:38.643Z,82.31
2023-05-22T00:07:38.607Z,82.31
2023-05-22T00:08:38.625Z,82.82
2023-05-22T00:09:38.593Z,82.96
2023-05-22T00:10:38.981Z,82.66
2023-05-22T00:11:38.563Z,83.17
2023-05-22T00:12:38.608Z,83.26
2023-05-22T00:13:38.553Z,83.26
2023-05-22T00:14:38.567Z,82.86
2023-05-22T00:15:38.551Z,82.96
2023-05-22T00:16:38.540Z,83.37
2023-05-22T00:17:38.531Z,83.06
2023-05-22T00:18:38.504Z,82.96
2023-05-22T00:19:38.521Z,82.96
2023-05-22T00:20:38.825Z,83.26
2023-05-22T00:21:38.461Z,83.61
2023-05-22T00:22:38.474Z,83.31
2023-05-22T00:23:38.433Z,83.51
2023-05-22T00:24:38.436Z,83.91
2023-05-22T00:25:38.407Z,83.61
2023-05-22T00:26:38.453Z,84.12
2023-05-22T00:27:38.394Z,83.71
2023-05-22T00:28:38.423Z,83.51
2023-05-22T00:29:38.372Z,83.81
2023-05-22T00:30:38.679Z,84.01
2023-05-22T00:31:38.366Z,83.81
2023-05-22T00:32:38.393Z,83.71
2023-05-22T00:33:38.346Z,84.22
2023-05-22T00:34:38.447Z,84.32
2023-05-22T00:35:38.316Z,84.12
2023-05-22T00:36:38.325Z,85.03
2023-05-22T00:37:38.281Z,84.46
2023-05-22T00:38:38.321Z,84.16
2023-05-22T00:39:38.273Z,84.87
2023-05-22T00:40:38.472Z,84.77
2023-05-22T00:41:38.246Z,84.46
2023-05-22T00:42:38.254Z,84.16
2023-05-22T00:43:38.226Z,84.66
2023-05-22T00:44:38.224Z,84.66
2023-05-22T00:45:38.191Z,84.36
2023-05-22T00:46:38.243Z,83.95
2023-05-22T00:47:38.226Z,84.05
2023-05-22T00:48:38.201Z,84.46
2023-05-22T00:49:38.182Z,84.26
2023-05-22T00:50:38.511Z,84.87
2023-05-22T00:51:38.138Z,84.56
2023-05-22T00:52:38.151Z,84.66
2023-05-22T00:53:38.154Z,84.87
2023-05-22T00:54:38.129Z,85.17
2023-05-22T00:55:38.126Z,84.87
2023-05-22T00:56:38.079Z,84.50
2023-05-22T00:57:38.085Z,85.31
2023-05-22T00:58:38.053Z,85.31
2023-05-22T00:59:38.075Z,85.41
2023-05-22T01:00:38.371Z,85.21
2023-05-22T01:01:38.116Z,84.91
2023-05-22T01:02:38.102Z,84.50
2023-05-22T01:03:38.101Z,84.70
2023-05-22T01:04:37.999Z,85.31
2023-05-22T01:05:37.998Z,84.91
2023-05-22T01:06:37.971Z,85.41
2023-05-22T01:07:37.982Z,85.62
2023-05-22T01:08:37.968Z,85.62
2023-05-22T01:09:37.965Z,85.62
2023-05-22T01:10:38.168Z,85.82
2023-05-22T01:11:37.936Z,85.41
2023-05-22T01:12:37.904Z,85.82
2023-05-22T01:13:37.911Z,85.82
2023-05-22T01:14:37.893Z,85.86
2023-05-22T01:15:37.889Z,86.33
2023-05-22T01:16:37.919Z,85.86
2023-05-22T01:17:38.026Z,85.96
2023-05-22T01:18:37.850Z,85.76
2023-05-22T01:19:37.851Z,85.46
2023-05-22T01:20:38.116Z,85.66
2023-05-22T01:21:37.856Z,85.86
2023-05-22T01:22:37.800Z,85.86
2023-05-22T01:23:37.830Z,86.47
2023-05-22T01:24:37.782Z,86.37
2023-05-22T01:25:37.800Z,85.96
2023-05-22T01:26:37.754Z,86.07
2023-05-22T01:27:37.767Z,86.88
2023-05-22T01:28:37.747Z,87.08
2023-05-22T01:29:37.741Z,86.77
2023-05-22T01:30:37.865Z,86.88
2023-05-22T01:31:37.732Z,87.08
2023-05-22T01:32:37.722Z,86.98
2023-05-22T01:33:37.741Z,87.18
2023-05-22T01:34:37.677Z,86.88
2023-05-22T01:35:37.690Z,86.37
2023-05-22T01:36:37.656Z,86.37
2023-05-22T01:37:37.658Z,86.51
2023-05-22T01:38:37.638Z,86.71
2023-05-22T01:39:37.653Z,87.02
2023-05-22T01:40:37.858Z,87.02
2023-05-22T01:41:37.630Z,86.92
2023-05-22T01:42:37.584Z,87.02
2023-05-22T01:43:37.614Z,87.02
2023-05-22T01:44:37.561Z,87.02
2023-05-22T01:45:37.618Z,87.63
2023-05-22T01:46:37.537Z,87.53
2023-05-22T01:47:37.632Z,87.12
2023-05-22T01:48:37.525Z,87.23
2023-05-22T01:49:37.550Z,87.02
2023-05-22T01:50:37.880Z,87.47
2023-05-22T01:51:37.521Z,87.37
2023-05-22T01:52:37.483Z,87.37
2023-05-22T01:53:37.481Z,88.39
2023-05-22T01:54:37.472Z,88.39
2023-05-22T01:55:37.462Z,88.79
2023-05-22T01:56:37.433Z,88.48
2023-05-22T01:57:37.460Z,88.48
2023-05-22T01:58:37.435Z,88.59
2023-05-22T01:59:37.448Z,88.53
2023-05-22T02:00:37.500Z,88.53
2023-05-22T02:01:37.451Z,88.83
2023-05-22T02:02:37.429Z,88.93
2023-05-22T02:03:37.401Z,89.14
2023-05-22T02:04:37.382Z,89.24
2023-05-22T02:05:37.385Z,88.93
2023-05-22T02:06:37.329Z,88.93
2023-05-22T02:07:37.355Z,88.63
2023-05-22T02:08:37.308Z,89.03
2023-05-22T02:09:37.331Z,88.73
2023-05-22T02:10:37.488Z,89.03
2023-05-22T02:11:37.322Z,88.93
2023-05-22T02:12:37.288Z,88.93
2023-05-22T02:13:37.271Z,89.24
2023-05-22T02:14:37.256Z,89.14
2023-05-22T02:15:37.287Z,88.83
2023-05-22T02:16:37.228Z,88.83
2023-05-22T02:17:37.239Z,88.73
2023-05-22T02:18:37.212Z,89.24
2023-05-22T02:19:37.270Z,89.34
2023-05-22T02:20:37.342Z,89.34
2023-05-22T02:21:37.200Z,89.34
2023-05-22T02:22:37.161Z,89.34
2023-05-22T02:23:37.165Z,89.34
2023-05-22T02:24:37.137Z,89.34
2023-05-22T02:25:37.151Z,89.38
2023-05-22T02:26:37.128Z,89.28
2023-05-22T02:27:37.135Z,88.98
2023-05-22T02:28:37.093Z,88.87
2023-05-22T02:29:37.130Z,89.18
2023-05-22T02:30:37.242Z,88.67
2023-05-22T02:31:37.141Z,88.57
2023-05-22T02:32:37.062Z,88.67
2023-05-22T02:33:37.072Z,88.77
2023-05-22T02:34:37.030Z,88.77
2023-05-22T02:35:37.040Z,88.67
2023-05-22T02:36:37.010Z,88.87
2023-05-22T02:37:37.030Z,89.89
2023-05-22T02:38:36.986Z,89.59
2023-05-22T02:39:36.993Z,89.59
2023-05-22T02:40:37.125Z,89.59
2023-05-22T02:41:36.986Z,89.89
2023-05-22T02:42:36.946Z,89.83
2023-05-22T02:43:36.975Z,90.34
2023-05-22T02:44:36.941Z,90.24
2023-05-22T02:45:36.942Z,90.34
2023-05-22T02:46:36.931Z,90.14
2023-05-22T02:47:36.920Z,89.94
2023-05-22T02:48:36.890Z,89.73
2023-05-22T02:49:36.898Z,90.55
2023-05-22T02:50:35.863Z,90.24
2023-05-22T02:51:36.880Z,90.44
2023-05-22T02:52:36.847Z,90.64
2023-05-22T02:53:36.854Z,90.34
2023-05-22T02:54:36.773Z,90.44
2023-05-22T02:55:36.833Z,90.95
2023-05-22T02:56:36.784Z,90.75
2023-05-22T02:57:36.771Z,90.99
2023-05-22T02:58:36.729Z,90.89
2023-05-22T02:59:36.744Z,90.79
2023-05-22T03:00:36.759Z,91.30
2023-05-22T03:01:36.818Z,91.50
2023-05-22T03:02:36.956Z,91.30
2023-05-22T03:03:36.801Z,90.99
2023-05-22T03:04:36.666Z,91.09
2023-05-22T03:05:36.736Z,90.99
2023-05-22T03:06:36.659Z,90.99
2023-05-22T03:07:36.667Z,90.79
2023-05-22T03:08:36.611Z,90.99
2023-05-22T03:09:36.615Z,90.89
2023-05-22T03:10:36.914Z,91.20
2023-05-22T03:11:36.606Z,91.30
2023-05-22T03:12:36.596Z,91.30
2023-05-22T03:13:36.599Z,91.20
2023-05-22T03:14:36.558Z,91.20
2023-05-22T03:15:36.563Z,90.99
2023-05-22T03:16:36.554Z,91.20
2023-05-22T03:17:36.559Z,91.35
2023-05-22T03:18:36.512Z,92.01
2023-05-22T03:19:36.534Z,91.81
2023-05-22T03:20:36.696Z,91.91
2023-05-22T03:21:36.506Z,92.05
2023-05-22T03:22:36.474Z,91.85
2023-05-22T03:23:36.471Z,91.96
2023-05-22T03:24:36.438Z,91.75
2023-05-22T03:25:36.455Z,91.65
2023-05-22T03:26:36.422Z,91.55
2023-05-22T03:27:36.436Z,91.96
2023-05-22T03:28:36.420Z,92.26
2023-05-22T03:29:36.426Z,92.16
2023-05-22T03:30:36.411Z,92.26
2023-05-22T03:31:36.382Z,92.61
2023-05-22T03:32:36.374Z,92.77
2023-05-22T03:33:36.456Z,92.71
2023-05-22T03:34:36.329Z,92.67
2023-05-22T03:35:36.343Z,92.61
2023-05-22T03:36:36.320Z,92.41
2023-05-22T03:37:36.331Z,92.05
2023-05-22T03:38:36.300Z,92.41
2023-05-22T03:39:36.319Z,92.10
2023-05-22T03:40:36.307Z,92.50
2023-05-22T03:41:36.274Z,92.71
2023-05-22T03:42:36.270Z,93.02
2023-05-22T03:43:36.268Z,92.71
2023-05-22T03:44:36.236Z,92.50
2023-05-22T03:45:36.281Z,92.71
2023-05-22T03:46:36.225Z,93.12
2023-05-22T03:47:36.240Z,93.02
2023-05-22T03:48:36.198Z,93.02
2023-05-22T03:49:36.216Z,92.91
2023-05-22T03:50:36.172Z,92.57
2023-05-22T03:51:36.168Z,92.46
2023-05-22T03:52:36.244Z,92.46
2023-05-22T03:53:36.152Z,92.91
2023-05-22T03:54:36.121Z,93.32
2023-05-22T03:55:36.139Z,93.59
2023-05-22T03:56:36.099Z,93.89
2023-05-22T03:57:36.114Z,93.38
2023-05-22T03:58:36.076Z,92.77
2023-05-22T03:59:36.105Z,92.36
2023-05-22T04:00:36.076Z,92.36
2023-05-22T04:01:36.087Z,92.77
2023-05-22T04:02:36.075Z,92.77
2023-05-22T04:03:36.087Z,92.67
2023-05-22T04:04:36.017Z,92.77
2023-05-22T04:05:36.085Z,93.89
2023-05-22T04:06:35.985Z,93.89
2023-05-22T04:07:36.011Z,93.79
2023-05-22T04:08:35.967Z,93.69
2023-05-22T04:09:35.972Z,93.69
2023-05-22T04:10:35.982Z,93.59
2023-05-22T04:11:35.976Z,93.48
2023-05-22T04:12:35.928Z,93.59
2023-05-22T04:13:35.938Z,93.89
2023-05-22T04:14:35.914Z,94.20
2023-05-22T04:15:35.940Z,93.89
2023-05-22T04:16:35.893Z,94.20
2023-05-22T04:17:35.964Z,94.30
2023-05-22T04:18:35.865Z,94.91
2023-05-22T04:19:35.908Z,94.81
2023-05-22T04:20:35.843Z,94.71
2023-05-22T04:21:35.861Z,94.60
2023-05-22T04:22:35.825Z,94.20
2023-05-22T04:23:35.833Z,94.30
2023-05-22T04:24:35.797Z,94.50
2023-05-22T04:25:35.805Z,94.81
2023-05-22T04:26:35.772Z,94.60
2023-05-22T04:27:35.803Z,94.91
2023-05-22T04:28:35.758Z,94.60
2023-05-22T04:29:35.789Z,94.20
2023-05-22T04:30:35.727Z,94.30
2023-05-22T04:31:35.842Z,94.50
2023-05-22T04:32:35.759Z,94.40
2023-05-22T04:33:35.715Z,94.71
2023-05-22T04:34:35.688Z,94.66
2023-05-22T04:35:35.716Z,94.66
2023-05-22T04:36:35.693Z,94.35
2023-05-22T04:37:35.705Z,94.26
2023-05-22T04:38:35.664Z,93.95
2023-05-22T04:39:35.681Z,94.66
2023-05-22T04:40:35.622Z,94.66
2023-05-22T04:41:35.646Z,94.26
2023-05-22T04:42:35.606Z,94.26
2023-05-22T04:43:35.632Z,94.35
2023-05-22T04:44:35.589Z,93.90
2023-05-22T04:45:35.607Z,93.80
2023-05-22T04:46:35.614Z,93.80
2023-05-22T04:47:35.579Z,93.90
2023-05-22T04:48:35.553Z,93.60
2023-05-22T04:49:35.584Z,93.60
2023-05-22T04:50:35.519Z,94.21
2023-05-22T04:51:35.529Z,94.01
2023-05-22T04:52:35.514Z,94.11
2023-05-22T04:53:35.502Z,93.80
2023-05-22T04:54:35.489Z,93.45
2023-05-22T04:55:35.527Z,94.17
2023-05-22T04:56:37.239Z,94.17
2023-05-22T04:57:35.477Z,93.76
2023-05-22T04:58:35.430Z,94.07
2023-05-22T04:59:35.481Z,94.27
2023-05-22T05:00:35.443Z,94.47
2023-05-22T05:01:35.479Z,94.68
2023-05-22T05:02:35.412Z,94.98
2023-05-22T05:03:35.464Z,94.93
2023-05-22T05:04:35.366Z,94.84
2023-05-22T05:05:35.390Z,94.73
2023-05-22T05:06:35.380Z,94.84
2023-05-22T05:07:35.367Z,94.63
2023-05-22T05:08:35.324Z,94.43
2023-05-22T05:09:35.311Z,94.28
2023-05-22T05:10:35.359Z,93.87
2023-05-22T05:11:35.315Z,93.87
2023-05-22T05:12:35.312Z,94.18
2023-05-22T05:13:35.280Z,94.18
2023-05-22T05:14:35.289Z,93.77
2023-05-22T05:15:35.263Z,93.57
2023-05-22T05:16:35.282Z,93.73
2023-05-22T05:17:35.265Z,93.32
2023-05-22T05:18:35.245Z,93.32
2023-05-22T05:19:36.847Z,93.12
2023-05-22T05:20:35.218Z,92.87
2023-05-22T05:21:35.197Z,92.77
2023-05-22T05:22:35.205Z,92.36
2023-05-22T05:23:35.162Z,92.06
2023-05-22T05:24:35.169Z,92.42
2023-05-22T05:25:35.156Z,92.12
2023-05-22T05:26:35.153Z,91.82
2023-05-22T05:27:35.121Z,91.91
2023-05-22T05:28:35.153Z,91.36
2023-05-22T05:29:35.105Z,90.96
2023-05-22T05:30:35.113Z,90.25
2023-05-22T05:31:35.144Z,90.00
2023-05-22T05:32:35.110Z,89.80
2023-05-22T05:33:35.065Z,89.39
2023-05-22T05:34:35.062Z,89.39
2023-05-22T05:35:35.044Z,89.29
2023-05-22T05:36:35.077Z,89.25
2023-05-22T05:37:35.016Z,89.04
2023-05-22T05:38:35.024Z,89.35
2023-05-22T05:39:35.000Z,89.25
2023-05-22T05:40:35.009Z,88.29
2023-05-22T05:41:34.969Z,88.49
2023-05-22T05:42:34.994Z,88.09
2023-05-22T05:43:34.973Z,87.95
2023-05-22T05:44:34.983Z,87.85
2023-05-22T05:45:34.935Z,87.34
2023-05-22T05:46:35.047Z,86.69
2023-05-22T05:47:35.072Z,85.78
2023-05-22T05:48:34.941Z,85.38
2023-05-22T05:49:35.786Z,85.38
2023-05-22T05:50:34.895Z,85.24
2023-05-22T05:51:34.856Z,84.33
2023-05-22T05:52:34.877Z,83.78
2023-05-22T05:53:34.844Z,83.47
2023-05-22T05:54:34.857Z,82.97
2023-05-22T05:55:34.873Z,82.73
2023-05-22T05:56:34.846Z,82.73
2023-05-22T05:57:34.807Z,82.62
2023-05-22T05:58:34.816Z,81.68
2023-05-22T05:59:34.814Z,80.57
2023-05-22T06:00:34.795Z,79.75
2023-05-22T06:01:34.757Z,79.01
2023-05-22T06:02:34.895Z,78.81
2023-05-22T06:03:34.815Z,79.11
2023-05-22T06:04:34.750Z,78.88
2023-05-22T06:05:34.807Z,78.97
2023-05-22T06:06:34.737Z,78.77
2023-05-22T06:07:34.690Z,78.57
2023-05-22T06:08:34.723Z,77.36
2023-05-22T06:09:34.674Z,77.53
2023-05-22T06:10:34.682Z,77.42
2023-05-22T06:11:34.656Z,77.62
2023-05-22T06:12:34.683Z,77.02
2023-05-22T06:13:34.656Z,77.28
2023-05-22T06:14:34.639Z,76.88
2023-05-22T06:15:34.607Z,76.38
2023-05-22T06:16:34.753Z,76.18
2023-05-22T06:17:34.665Z,75.27
2023-05-22T06:18:34.604Z,75.94
2023-05-22T06:19:34.613Z,76.14
2023-05-22T06:20:34.570Z,75.74
2023-05-22T06:21:34.539Z,75.60
2023-05-22T06:22:34.542Z,75.20
2023-05-22T06:23:34.520Z,73.99
2023-05-22T06:24:34.550Z,73.88
2023-05-22T06:25:34.514Z,72.85
2023-05-22T06:26:34.517Z,72.74
2023-05-22T06:27:34.499Z,71.64
2023-05-22T06:28:34.493Z,72.04
2023-05-22T06:29:34.464Z,74.52
2023-05-22T06:30:43.423Z,72.11
2023-05-22T06:31:34.493Z,71.16
2023-05-22T06:32:34.581Z,71.56
2023-05-22T06:33:34.712Z,71.06
2023-05-22T06:34:34.419Z,69.72
2023-05-22T06:35:34.408Z,68.62
2023-05-22T06:36:34.416Z,67.78
2023-05-22T06:37:34.373Z,68.05
2023-05-22T06:38:34.392Z,66.54
2023-05-22T06:39:34.486Z,66.11
2023-05-22T06:40:34.358Z,64.67
2023-05-22T06:41:34.346Z,63.87
2023-05-22T06:42:34.351Z,64.43
2023-05-22T06:43:34.309Z,64.24
2023-05-22T06:44:34.374Z,64.71
2023-05-22T06:45:34.323Z,64.31
2023-05-22T06:46:34.383Z,64.01
2023-05-22T06:47:34.306Z,63.47
2023-05-22T06:48:34.286Z,61.27
2023-05-22T06:49:34.241Z,60.03
2023-05-22T06:50:34.250Z,60.01
2023-05-22T06:51:34.224Z,57.98
2023-05-22T06:52:34.255Z,57.02
2023-05-22T06:53:34.219Z,56.89
2023-05-22T06:54:34.204Z,55.74
2023-05-22T06:55:34.186Z,55.64
2023-05-22T06:56:34.211Z,54.11
2023-05-22T06:57:34.161Z,54.49
2023-05-22T06:58:34.179Z,52.87
2023-05-22T06:59:34.136Z,52.84
2023-05-22T07:00:34.162Z,51.92
2023-05-22T07:01:34.151Z,52.39
2023-05-22T07:02:34.129Z,52.19
2023-05-22T07:03:34.093Z,52.19
2023-05-22T07:04:34.100Z,52.19
2023-05-22T07:05:34.087Z,51.29
2023-05-22T07:06:34.090Z,51.67
2023-05-22T07:07:34.060Z,51.05
2023-05-22T07:08:34.056Z,49.23
2023-05-22T07:09:34.030Z,48.22
2023-05-22T07:10:34.046Z,47.87
2023-05-22T07:11:34.011Z,46.66
2023-05-22T07:12:34.015Z,46.24
2023-05-22T07:13:33.998Z,46.44
2023-05-22T07:14:34.011Z,46.24
2023-05-22T07:15:33.975Z,46.95
2023-05-22T07:16:34.078Z,46.04
2023-05-22T07:17:33.953Z,46.36
2023-05-22T07:18:33.993Z,47.16
2023-05-22T07:19:34.038Z,45.27
2023-05-22T07:20:33.941Z,45.74
2023-05-22T07:21:33.905Z,44.71
2023-05-22T07:22:33.929Z,46.19
2023-05-22T07:23:33.890Z,45.10
2023-05-22T07:24:33.923Z,44.78
2023-05-22T07:25:33.866Z,43.67
2023-05-22T07:26:34.599Z,42.36
2023-05-22T07:27:33.872Z,42.76
2023-05-22T07:28:33.860Z,42.64
2023-05-22T07:29:33.838Z,41.16
2023-05-22T07:30:33.838Z,41.28
2023-05-22T07:31:33.813Z,42.21
2023-05-22T07:32:33.885Z,42.80
2023-05-22T07:33:33.787Z,43.30
2023-05-22T07:34:33.808Z,42.90
2023-05-22T07:35:33.754Z,43.08
2023-05-22T07:36:33.777Z,42.50
2023-05-22T07:37:33.732Z,42.41
2023-05-22T07:38:33.727Z,42.58
2023-05-22T07:39:33.716Z,43.10
2023-05-22T07:40:33.751Z,43.38
2023-05-22T07:41:33.709Z,42.57
2023-05-22T07:42:33.696Z,42.86
2023-05-22T07:43:33.664Z,42.54
2023-05-22T07:44:33.685Z,40.72
2023-05-22T07:45:33.655Z,40.41
2023-05-22T07:46:33.696Z,41.10
2023-05-22T07:47:33.636Z,40.92
2023-05-22T07:48:33.649Z,40.90
2023-05-22T07:49:33.620Z,40.19
2023-05-22T07:50:33.612Z,39.28
2023-05-22T07:51:33.600Z,39.28
2023-05-22T07:52:33.598Z,39.11
2023-05-22T07:53:33.563Z,40.39
2023-05-22T07:54:33.585Z,39.87
2023-05-22T07:55:33.550Z,39.58
2023-05-22T07:56:33.561Z,40.58
2023-05-22T07:57:33.531Z,39.50
2023-05-22T07:58:33.574Z,40.21
2023-05-22T07:59:33.497Z,40.90
2023-05-22T08:00:33.514Z,40.69
2023-05-22T08:01:33.505Z,41.57
2023-05-22T08:02:33.632Z,40.27
2023-05-22T08:03:33.590Z,40.47
2023-05-22T08:04:33.660Z,41.06
2023-05-22T08:05:33.445Z,42.83
2023-05-22T08:06:33.444Z,40.56
2023-05-22T08:07:33.444Z,39.65
2023-05-22T08:08:33.436Z,41.47
2023-05-22T08:09:33.412Z,40.69
2023-05-22T08:10:46.413Z,41.39
2023-05-22T08:11:33.386Z,40.21
2023-05-22T08:12:33.398Z,41.67
2023-05-22T08:13:33.363Z,42.07
2023-05-22T08:14:33.380Z,40.86
2023-05-22T08:15:33.326Z,38.98
2023-05-22T08:16:33.383Z,38.98
2023-05-22T08:17:33.413Z,38.59
2023-05-22T08:18:33.324Z,38.61
2023-05-22T08:19:33.565Z,39.60
2023-05-22T08:20:33.357Z,40.29
2023-05-22T08:21:33.300Z,39.87
2023-05-22T08:22:33.294Z,40.47
2023-05-22T08:23:33.262Z,40.45
2023-05-22T08:24:33.255Z,38.95
2023-05-22T08:25:33.258Z,38.06
2023-05-22T08:26:33.378Z,38.16
2023-05-22T08:27:33.240Z,37.76
2023-05-22T08:28:33.229Z,38.65
2023-05-22T08:29:33.191Z,38.04
2023-05-22T08:30:33.200Z,37.65
2023-05-22T08:31:33.269Z,39.46
2023-05-22T08:32:33.245Z,38.87
2023-05-22T08:33:33.185Z,38.57
2023-05-22T08:34:33.168Z,38.18
2023-05-22T08:35:33.130Z,39.17
2023-05-22T08:36:33.157Z,38.85
2023-05-22T08:37:33.115Z,39.52
2023-05-22T08:38:33.147Z,39.40
2023-05-22T08:39:33.084Z,39.97
2023-05-22T08:40:33.116Z,37.81
2023-05-22T08:41:33.085Z,37.51
2023-05-22T08:42:33.137Z,37.59
2023-05-22T08:43:33.073Z,37.02
2023-05-22T08:44:33.086Z,36.33
2023-05-22T08:45:33.044Z,37.02
2023-05-22T08:46:33.047Z,35.84
2023-05-22T08:47:33.122Z,37.30
2023-05-22T08:48:33.056Z,36.72
2023-05-22T08:49:32.995Z,35.92
2023-05-22T08:50:32.990Z,35.31
2023-05-22T08:51:32.987Z,35.49
2023-05-22T08:52:33.005Z,34.78
2023-05-22T08:53:32.972Z,35.87
2023-05-22T08:54:32.967Z,36.16
2023-05-22T08:55:32.930Z,36.67
2023-05-22T08:56:35.230Z,36.07
2023-05-22T08:57:32.920Z,34.69
2023-05-22T08:58:32.941Z,33.97
2023-05-22T08:59:32.891Z,34.15
2023-05-22T09:00:32.911Z,34.44
2023-05-22T09:01:32.958Z,34.75
2023-05-22T09:02:32.915Z,35.85
2023-05-22T09:03:33.091Z,35.87
2023-05-22T09:04:32.878Z,36.97
2023-05-22T09:05:32.834Z,35.88
2023-05-22T09:06:32.875Z,37.08
2023-05-22T09:07:32.814Z,37.48
2023-05-22T09:08:32.834Z,37.48
2023-05-22T09:09:32.806Z,37.26
2023-05-22T09:10:32.826Z,35.00
2023-05-22T09:11:32.800Z,35.49
2023-05-22T09:12:32.784Z,36.47
2023-05-22T09:13:32.768Z,37.38
2023-05-22T09:14:32.789Z,36.00
2023-05-22T09:15:32.827Z,35.78
2023-05-22T09:16:32.815Z,35.59
2023-05-22T09:17:32.756Z,35.21
2023-05-22T09:18:32.735Z,36.90
2023-05-22T09:19:32.800Z,36.32
2023-05-22T09:20:32.725Z,36.00
2023-05-22T09:21:32.711Z,36.49
2023-05-22T09:22:32.688Z,35.90
2023-05-22T09:23:32.662Z,37.76
2023-05-22T09:24:32.714Z,36.38
2023-05-22T09:25:32.685Z,35.55
2023-05-22T09:26:32.658Z,34.16
2023-05-22T09:27:32.665Z,35.23
2023-05-22T09:28:32.643Z,35.13
2023-05-22T09:29:32.639Z,33.85
2023-05-22T09:30:32.615Z,35.03
2023-05-22T09:31:32.657Z,35.42
2023-05-22T09:32:32.634Z,34.72
2023-05-22T09:33:32.611Z,35.02
2023-05-22T09:34:32.608Z,35.03
2023-05-22T09:35:32.594Z,33.74
2023-05-22T09:36:32.533Z,33.85
2023-05-22T09:37:32.560Z,36.03
2023-05-22T09:38:32.534Z,36.03
2023-05-22T09:39:32.521Z,36.91
2023-05-22T09:40:32.525Z,36.32
2023-05-22T09:41:32.502Z,36.62
2023-05-22T09:42:32.482Z,36.72
2023-05-22T09:43:32.488Z,35.13
2023-05-22T09:44:32.460Z,35.70
2023-05-22T09:45:32.473Z,32.84
2023-05-22T09:46:32.518Z,33.22
2023-05-22T09:47:32.454Z,32.82
2023-05-22T09:48:32.421Z,33.12
2023-05-22T09:49:32.475Z,32.25
2023-05-22T09:50:32.398Z,31.74
2023-05-22T09:51:32.417Z,32.64
2023-05-22T09:52:32.384Z,32.23
2023-05-22T09:53:32.403Z,32.53
2023-05-22T09:54:32.360Z,32.12
2023-05-22T09:55:32.379Z,31.42
2023-05-22T09:56:39.125Z,32.71
2023-05-22T09:57:32.371Z,33.61
2023-05-22T09:58:32.354Z,32.12
2023-05-22T09:59:32.349Z,33.70
2023-05-22T10:00:32.301Z,32.12
2023-05-22T10:01:32.379Z,32.01
2023-05-22T10:02:32.333Z,32.70
2023-05-22T10:03:32.313Z,31.71
2023-05-22T10:04:32.327Z,31.81
2023-05-22T10:05:32.303Z,32.10
2023-05-22T10:06:32.245Z,31.71
2023-05-22T10:07:32.258Z,31.81
2023-05-22T10:08:32.252Z,33.87
2023-05-22T10:09:32.242Z,32.51
2023-05-22T10:10:32.213Z,32.12
2023-05-22T10:11:32.246Z,32.20
2023-05-22T10:12:32.202Z,31.32
2023-05-22T10:13:32.209Z,30.82
2023-05-22T10:14:32.181Z,29.83
2023-05-22T10:15:32.204Z,31.10
2023-05-22T10:16:32.252Z,30.83
2023-05-22T10:17:32.172Z,32.22
2023-05-22T10:18:32.167Z,33.18
2023-05-22T10:19:32.230Z,31.11
2023-05-22T10:20:32.128Z,31.99
2023-05-22T10:21:32.139Z,32.97
2023-05-22T10:22:32.102Z,30.41
2023-05-22T10:23:32.135Z,30.80
2023-05-22T10:24:32.109Z,30.91
2023-05-22T10:25:32.108Z,32.40
2023-05-22T10:26:32.069Z,31.42
2023-05-22T10:27:32.078Z,32.29
2023-05-22T10:28:32.054Z,30.82
2023-05-22T10:29:32.075Z,32.27
2023-05-22T10:30:32.033Z,28.44
2023-05-22T10:31:32.075Z,29.91
2023-05-22T10:32:32.032Z,28.72
2023-05-22T10:33:32.084Z,28.83
2023-05-22T10:34:32.031Z,28.92
2023-05-22T10:35:32.011Z,27.83
2023-05-22T10:36:31.979Z,27.91
2023-05-22T10:37:31.998Z,26.24
2023-05-22T10:38:31.956Z,27.40
2023-05-22T10:39:31.978Z,25.93
2023-05-22T10:40:32.111Z,24.85
2023-05-22T10:41:32.050Z,25.13
2023-05-22T10:42:31.915Z,25.02
2023-05-22T10:43:31.944Z,26.01
2023-05-22T10:44:31.910Z,25.95
2023-05-22T10:45:32.088Z,26.92
2023-05-22T10:46:31.945Z,28.29
2023-05-22T10:47:31.909Z,25.74
2023-05-22T10:48:31.855Z,26.52
2023-05-22T10:49:31.874Z,26.35
2023-05-22T10:50:31.854Z,26.76
2023-05-22T10:51:31.861Z,25.01
2023-05-22T10:52:31.825Z,26.27
2023-05-22T10:53:31.853Z,26.64
2023-05-22T10:54:31.823Z,26.73
2023-05-22T10:55:31.822Z,24.57
2023-05-22T10:56:31.810Z,23.21
2023-05-22T10:57:31.795Z,24.98
2023-05-22T10:58:31.768Z,25.85
2023-05-22T10:59:31.774Z,25.76
2023-05-22T11:00:31.780Z,24.51
2023-05-22T11:01:31.772Z,25.98
2023-05-22T11:02:31.868Z,25.08
2023-05-22T11:03:31.781Z,23.90
2023-05-22T11:04:31.733Z,23.58
2023-05-22T11:05:31.754Z,22.99
2023-05-22T11:06:31.705Z,22.49
2023-05-22T11:07:31.717Z,24.04
2023-05-22T11:08:31.680Z,22.20
2023-05-22T11:09:31.720Z,22.90
2023-05-22T11:10:31.661Z,24.18
2023-05-22T11:11:31.682Z,23.62
2023-05-22T11:12:31.653Z,25.76
2023-05-22T11:13:31.657Z,24.60
2023-05-22T11:14:31.618Z,24.98
2023-05-22T11:15:31.640Z,24.29
2023-05-22T11:16:31.639Z,25.47
2023-05-22T11:17:31.715Z,24.41
2023-05-22T11:18:31.581Z,24.90
2023-05-22T11:19:31.678Z,25.08
2023-05-22T11:20:31.563Z,24.11
2023-05-22T11:21:31.573Z,24.78
2023-05-22T11:22:31.546Z,24.68
2023-05-22T11:23:31.560Z,22.84
2023-05-22T11:24:31.536Z,23.34
2023-05-22T11:25:31.547Z,24.50
2023-05-22T11:26:31.502Z,23.41
2023-05-22T11:27:31.529Z,22.62
2023-05-22T11:28:31.495Z,22.80
2023-05-22T11:29:31.537Z,23.88
2023-05-22T11:30:31.466Z,22.51
2023-05-22T11:31:31.591Z,24.06
2023-05-22T11:32:31.471Z,22.87
2023-05-22T11:33:31.472Z,22.77
2023-05-22T11:34:31.430Z,21.70
2023-05-22T11:35:31.449Z,21.92
2023-05-22T11:36:31.421Z,23.23
2023-05-22T11:37:31.440Z,23.43
2023-05-22T11:38:31.407Z,22.83
2023-05-22T11:39:31.415Z,24.10
2023-05-22T11:40:31.390Z,23.50
2023-05-22T11:41:33.500Z,23.69
2023-05-22T11:42:31.383Z,23.57
2023-05-22T11:43:31.400Z,24.35
2023-05-22T11:44:31.345Z,23.57
2023-05-22T11:45:31.349Z,23.88
2023-05-22T11:46:31.332Z,23.78
2023-05-22T11:47:31.378Z,24.57
2023-05-22T11:48:31.304Z,24.08
2023-05-22T11:49:31.326Z,24.18
2023-05-22T11:50:41.773Z,24.07
2023-05-22T11:51:31.355Z,23.30
2023-05-22T11:52:31.264Z,23.88
2023-05-22T11:53:31.275Z,24.96
2023-05-22T11:54:31.248Z,24.79
2023-05-22T11:55:31.257Z,24.91
2023-05-22T11:56:31.234Z,25.73
2023-05-22T11:57:31.243Z,24.77
2023-05-22T11:58:31.235Z,23.91
2023-05-22T11:59:31.228Z,25.39
2023-05-22T12:00:31.405Z,25.59
2023-05-22T12:01:31.207Z,27.06
2023-05-22T12:02:31.232Z,26.75
2023-05-22T12:03:31.348Z,25.94
2023-05-22T12:04:31.149Z,26.50
2023-05-22T12:05:31.186Z,26.20
2023-05-22T12:06:31.193Z,25.61
2023-05-22T12:07:31.151Z,23.18
2023-05-22T12:08:31.106Z,23.58
2023-05-22T12:09:31.143Z,24.66
2023-05-22T12:10:31.092Z,24.27
2023-05-22T12:11:31.100Z,24.76
2023-05-22T12:12:31.090Z,23.39
2023-05-22T12:13:31.104Z,24.18
2023-05-22T12:14:31.054Z,24.85
2023-05-22T12:15:31.083Z,25.93
2023-05-22T12:16:31.046Z,25.55
2023-05-22T12:17:31.079Z,24.57
2023-05-22T12:18:31.029Z,25.35
2023-05-22T12:19:31.198Z,25.45
2023-05-22T12:20:30.987Z,23.98
2023-05-22T12:21:31.004Z,25.16
2023-05-22T12:22:30.986Z,26.03
2023-05-22T12:23:30.976Z,24.53
2023-05-22T12:24:30.961Z,24.32
2023-05-22T12:25:30.971Z,23.64
2023-05-22T12:26:30.952Z,24.80
2023-05-22T12:27:33.029Z,24.10
2023-05-22T12:28:30.943Z,24.29
2023-05-22T12:29:30.975Z,22.35
2023-05-22T12:30:31.003Z,22.37
2023-05-22T12:31:31.129Z,23.09
2023-05-22T12:32:31.044Z,24.76
2023-05-22T12:33:30.899Z,25.57
2023-05-22T12:34:30.864Z,25.98
2023-05-22T12:35:31.020Z,24.70
2023-05-22T12:36:30.848Z,24.80
2023-05-22T12:37:30.885Z,25.10
2023-05-22T12:38:30.911Z,24.49
2023-05-22T12:39:30.870Z,24.48
2023-05-22T12:40:30.828Z,25.15
2023-05-22T12:41:30.840Z,24.44
2023-05-22T12:42:30.789Z,26.77
2023-05-22T12:43:30.805Z,25.20
2023-05-22T12:44:30.770Z,25.29
2023-05-22T12:45:30.804Z,25.36
2023-05-22T12:46:30.793Z,24.30
2023-05-22T12:47:30.839Z,23.63
2023-05-22T12:48:30.734Z,23.64
2023-05-22T12:49:30.778Z,24.35
2023-05-22T12:50:30.714Z,26.01
2023-05-22T12:51:30.750Z,25.12
2023-05-22T12:52:30.699Z,25.34